sensor_id;sensor_type;location;lat;lon;timestamp;temperature;humidity
17687;DHT22;8962;52.538;13.266;2024-03-23T00:53:04;8.40;99.90
17687;DHT22;8962;52.538;13.266;2024-03-23T00:55:31;8.40;99.90
17687;DHT22;8962;52.538;13.266;2024-03-23T00:57:58;8.40;99.90
17687;DHT22;8962;52.538;13.266;2024-03-23T01:00:25;8.40;99.90
17687;DHT22;8962;52.538;13.266;2024-03-23T01:02:52;8.40;99.90
17687;DHT22;8962;52.538;13.266;2024-03-23T01:05:18;8.40;99.90
17687;DHT22;8962;52.538;13.266;2024-03-23T01:07:46;8.40;99.90
17687;DHT22;8962;52.538;13.266;2024-03-23T01:10:14;8.40;99.90
17687;DHT22;8962;52.538;13.266;2024-03-23T01:12:41;8.30;99.90
17687;DHT22;8962;52.538;13.266;2024-03-23T01:15:08;8.30;99.90
17687;DHT22;8962;52.538;13.266;2024-03-23T01:17:35;8.30;99.90
17687;DHT22;8962;52.538;13.266;2024-03-23T01:20:02;8.30;99.90
17687;DHT22;8962;52.538;13.266;2024-03-23T01:22:30;8.40;99.90
17687;DHT22;8962;52.538;13.266;2024-03-23T01:24:56;8.40;99.90
17687;DHT22;8962;52.538;13.266;2024-03-23T01:27:25;8.40;99.90
17687;DHT22;8962;52.538;13.266;2024-03-23T01:29:51;8.30;99.90
17687;DHT22;8962;52.538;13.266;2024-03-23T01:32:19;8.40;99.90
17687;DHT22;8962;52.538;13.266;2024-03-23T01:34:45;8.40;99.90
17687;DHT22;8962;52.538;13.266;2024-03-23T01:37:12;8.40;99.90
17687;DHT22;8962;52.538;13.266;2024-03-23T01:39:38;8.40;99.90
17687;DHT22;8962;52.538;13.266;2024-03-23T01:42:06;8.40;99.90
17687;DHT22;8962;52.538;13.266;2024-03-23T01:44:33;8.40;99.90
17687;DHT22;8962;52.538;13.266;2024-03-23T01:47:00;8.40;99.90
17687;DHT22;8962;52.538;13.266;2024-03-23T01:49:26;8.40;99.90
17687;DHT22;8962;52.538;13.266;2024-03-23T01:51:53;8.40;99.90
17687;DHT22;8962;52.538;13.266;2024-03-23T01:54:20;8.50;99.90
17687;DHT22;8962;52.538;13.266;2024-03-23T01:56:47;8.50;99.90
17687;DHT22;8962;52.538;13.266;2024-03-23T01:59:15;8.50;99.90
17687;DHT22;8962;52.538;13.266;2024-03-23T02:01:43;8.40;99.90
17687;DHT22;8962;52.538;13.266;2024-03-23T02:04:09;8.50;99.90
17687;DHT22;8962;52.538;13.266;2024-03-23T02:06:37;8.50;99.90
17687;DHT22;8962;52.538;13.266;2024-03-23T02:09:03;8.40;99.90
17687;DHT22;8962;52.538;13.266;2024-03-23T02:11:31;8.40;99.90
17687;DHT22;8962;52.538;13.266;2024-03-23T02:13:57;8.50;99.90
17687;DHT22;8962;52.538;13.266;2024-03-23T02:16:24;8.40;99.90
17687;DHT22;8962;52.538;13.266;2024-03-23T02:18:52;8.40;99.90
17687;DHT22;8962;52.538;13.266;2024-03-23T02:21:19;8.40;99.90
17687;DHT22;8962;52.538;13.266;2024-03-23T02:23:47;8.30;99.90
17687;DHT22;8962;52.538;13.266;2024-03-23T02:26:14;8.20;99.90
17687;DHT22;8962;52.538;13.266;2024-03-23T02:28:41;8.20;99.90
17687;DHT22;8962;52.538;13.266;2024-03-23T02:31:08;8.20;99.90
17687;DHT22;8962;52.538;13.266;2024-03-23T02:33:34;8.30;99.90
17687;DHT22;8962;52.538;13.266;2024-03-23T02:36:04;8.20;99.90
17687;DHT22;8962;52.538;13.266;2024-03-23T02:38:30;8.20;99.90
17687;DHT22;8962;52.538;13.266;2024-03-23T02:41:03;8.30;99.90
17687;DHT22;8962;52.538;13.266;2024-03-23T02:43:29;8.20;99.90
17687;DHT22;8962;52.538;13.266;2024-03-23T02:45:58;8.20;99.90
17687;DHT22;8962;52.538;13.266;2024-03-23T02:48:24;8.10;99.90
17687;DHT22;8962;52.538;13.266;2024-03-23T02:50:51;8.10;99.90
17687;DHT22;8962;52.538;13.266;2024-03-23T02:53:17;8.10;99.90
17687;DHT22;8962;52.538;13.266;2024-03-23T02:55:44;8.10;99.90
17687;DHT22;8962;52.538;13.266;2024-03-23T02:58:12;8.10;99.90
17687;DHT22;8962;52.538;13.266;2024-03-23T03:00:39;8.10;99.90
17687;DHT22;8962;52.538;13.266;2024-03-23T03:03:06;8.10;99.90
17687;DHT22;8962;52.538;13.266;2024-03-23T03:05:34;8.00;99.90
17687;DHT22;8962;52.538;13.266;2024-03-23T03:08:00;8.00;99.90
17687;DHT22;8962;52.538;13.266;2024-03-23T03:10:27;8.00;99.90
17687;DHT22;8962;52.538;13.266;2024-03-23T03:12:53;8.00;99.90
17687;DHT22;8962;52.538;13.266;2024-03-23T03:15:23;7.90;99.90
17687;DHT22;8962;52.538;13.266;2024-03-23T03:17:49;7.90;99.90
17687;DHT22;8962;52.538;13.266;2024-03-23T03:20:16;7.90;99.90
17687;DHT22;8962;52.538;13.266;2024-03-23T03:22:43;7.90;99.90
17687;DHT22;8962;52.538;13.266;2024-03-23T03:25:10;7.80;99.90
17687;DHT22;8962;52.538;13.266;2024-03-23T03:27:36;7.80;99.90
17687;DHT22;8962;52.538;13.266;2024-03-23T03:30:04;7.80;99.90
17687;DHT22;8962;52.538;13.266;2024-03-23T03:32:33;7.80;99.90
17687;DHT22;8962;52.538;13.266;2024-03-23T03:35:01;7.70;99.90
17687;DHT22;8962;52.538;13.266;2024-03-23T03:37:28;7.70;99.90
17687;DHT22;8962;52.538;13.266;2024-03-23T03:39:55;7.80;99.90
17687;DHT22;8962;52.538;13.266;2024-03-23T03:42:21;7.80;99.90
17687;DHT22;8962;52.538;13.266;2024-03-23T03:44:48;7.70;99.90
17687;DHT22;8962;52.538;13.266;2024-03-23T03:47:14;7.80;99.90
17687;DHT22;8962;52.538;13.266;2024-03-23T03:49:43;7.70;99.90
17687;DHT22;8962;52.538;13.266;2024-03-23T03:52:09;7.60;99.90
17687;DHT22;8962;52.538;13.266;2024-03-23T03:54:36;7.60;99.90
17687;DHT22;8962;52.538;13.266;2024-03-23T03:57:03;7.60;99.90
17687;DHT22;8962;52.538;13.266;2024-03-23T03:59:30;7.60;99.90
17687;DHT22;8962;52.538;13.266;2024-03-23T04:01:56;7.50;99.90
17687;DHT22;8962;52.538;13.266;2024-03-23T04:04:23;7.60;99.90
17687;DHT22;8962;52.538;13.266;2024-03-23T04:06:58;7.60;99.90
17687;DHT22;8962;52.538;13.266;2024-03-23T04:09:25;7.60;99.90
17687;DHT22;8962;52.538;13.266;2024-03-23T04:11:51;7.60;99.90
17687;DHT22;8962;52.538;13.266;2024-03-23T04:14:18;7.60;99.90
17687;DHT22;8962;52.538;13.266;2024-03-23T04:16:44;7.50;99.90
17687;DHT22;8962;52.538;13.266;2024-03-23T04:19:11;7.50;99.90
17687;DHT22;8962;52.538;13.266;2024-03-23T04:21:38;7.40;99.90
17687;DHT22;8962;52.538;13.266;2024-03-23T04:24:06;7.40;99.90
17687;DHT22;8962;52.538;13.266;2024-03-23T04:26:40;7.40;99.90
17687;DHT22;8962;52.538;13.266;2024-03-23T04:29:07;7.30;99.90
17687;DHT22;8962;52.538;13.266;2024-03-23T04:31:33;7.30;99.90
17687;DHT22;8962;52.538;13.266;2024-03-23T04:34:01;7.30;99.90
17687;DHT22;8962;52.538;13.266;2024-03-23T04:36:27;7.40;99.90
17687;DHT22;8962;52.538;13.266;2024-03-23T04:38:55;7.40;99.90
17687;DHT22;8962;52.538;13.266;2024-03-23T04:41:23;7.40;99.90
17687;DHT22;8962;52.538;13.266;2024-03-23T04:43:51;7.40;99.90
17687;DHT22;8962;52.538;13.266;2024-03-23T04:46:19;7.40;99.90
17687;DHT22;8962;52.538;13.266;2024-03-23T04:48:46;7.40;99.90
17687;DHT22;8962;52.538;13.266;2024-03-23T04:51:20;7.40;99.90
17687;DHT22;8962;52.538;13.266;2024-03-23T04:53:48;7.40;99.90
17687;DHT22;8962;52.538;13.266;2024-03-23T04:56:15;7.40;99.90
17687;DHT22;8962;52.538;13.266;2024-03-23T04:58:44;7.40;99.90
17687;DHT22;8962;52.538;13.266;2024-03-23T05:01:11;7.40;99.90
17687;DHT22;8962;52.538;13.266;2024-03-23T05:03:38;7.40;99.90
17687;DHT22;8962;52.538;13.266;2024-03-23T05:06:05;7.30;99.90
17687;DHT22;8962;52.538;13.266;2024-03-23T05:08:33;7.30;99.90
17687;DHT22;8962;52.538;13.266;2024-03-23T05:10:59;7.30;99.90
17687;DHT22;8962;52.538;13.266;2024-03-23T05:13:26;7.30;99.90
17687;DHT22;8962;52.538;13.266;2024-03-23T05:15:55;7.20;99.90
17687;DHT22;8962;52.538;13.266;2024-03-23T05:18:21;7.20;99.90
17687;DHT22;8962;52.538;13.266;2024-03-23T05:20:55;7.20;99.90
17687;DHT22;8962;52.538;13.266;2024-03-23T05:23:22;7.20;99.90
17687;DHT22;8962;52.538;13.266;2024-03-23T05:25:49;7.30;99.90
17687;DHT22;8962;52.538;13.266;2024-03-23T05:28:15;7.30;99.90
17687;DHT22;8962;52.538;13.266;2024-03-23T05:30:42;7.20;99.90
17687;DHT22;8962;52.538;13.266;2024-03-23T05:33:10;7.20;99.90
17687;DHT22;8962;52.538;13.266;2024-03-23T05:35:37;7.20;99.90
17687;DHT22;8962;52.538;13.266;2024-03-23T05:38:03;7.20;99.90
17687;DHT22;8962;52.538;13.266;2024-03-23T05:40:33;7.20;99.90
17687;DHT22;8962;52.538;13.266;2024-03-23T05:43:03;7.20;99.90
17687;DHT22;8962;52.538;13.266;2024-03-23T05:45:30;7.20;99.90
17687;DHT22;8962;52.538;13.266;2024-03-23T05:47:56;7.20;99.90
17687;DHT22;8962;52.538;13.266;2024-03-23T05:50:25;7.20;99.90
17687;DHT22;8962;52.538;13.266;2024-03-23T05:52:51;7.30;99.90
17687;DHT22;8962;52.538;13.266;2024-03-23T05:55:18;7.30;99.90
17687;DHT22;8962;52.538;13.266;2024-03-23T05:57:44;7.30;99.90
17687;DHT22;8962;52.538;13.266;2024-03-23T06:00:11;7.30;99.90
17687;DHT22;8962;52.538;13.266;2024-03-23T06:02:41;7.30;99.90
17687;DHT22;8962;52.538;13.266;2024-03-23T06:05:10;7.40;99.90
17687;DHT22;8962;52.538;13.266;2024-03-23T06:07:38;7.40;99.90
17687;DHT22;8962;52.538;13.266;2024-03-23T06:10:05;7.40;99.90
17687;DHT22;8962;52.538;13.266;2024-03-23T06:12:31;7.40;99.90
17687;DHT22;8962;52.538;13.266;2024-03-23T06:15:00;7.40;99.90
17687;DHT22;8962;52.538;13.266;2024-03-23T06:17:26;7.40;99.90
17687;DHT22;8962;52.538;13.266;2024-03-23T06:19:53;7.50;99.90
17687;DHT22;8962;52.538;13.266;2024-03-23T06:22:19;7.50;99.90
17687;DHT22;8962;52.538;13.266;2024-03-23T06:24:48;7.50;99.90
17687;DHT22;8962;52.538;13.266;2024-03-23T06:27:14;7.60;99.90
17687;DHT22;8962;52.538;13.266;2024-03-23T06:29:41;7.60;99.90
17687;DHT22;8962;52.538;13.266;2024-03-23T06:32:07;7.60;99.90
17687;DHT22;8962;52.538;13.266;2024-03-23T06:34:34;7.50;99.90
17687;DHT22;8962;52.538;13.266;2024-03-23T06:37:01;7.50;99.90
17687;DHT22;8962;52.538;13.266;2024-03-23T06:39:28;7.40;99.90
17687;DHT22;8962;52.538;13.266;2024-03-23T06:41:56;7.40;99.90
17687;DHT22;8962;52.538;13.266;2024-03-23T06:44:23;7.40;99.90
17687;DHT22;8962;52.538;13.266;2024-03-23T06:46:50;7.50;99.90
17687;DHT22;8962;52.538;13.266;2024-03-23T06:49:18;7.50;99.90
17687;DHT22;8962;52.538;13.266;2024-03-23T06:51:47;7.50;99.90
17687;DHT22;8962;52.538;13.266;2024-03-23T06:54:13;7.50;99.90
17687;DHT22;8962;52.538;13.266;2024-03-23T06:56:40;7.60;99.90
17687;DHT22;8962;52.538;13.266;2024-03-23T06:59:08;7.70;99.90
17687;DHT22;8962;52.538;13.266;2024-03-23T07:01:36;7.70;99.90
17687;DHT22;8962;52.538;13.266;2024-03-23T07:04:02;7.70;99.90
17687;DHT22;8962;52.538;13.266;2024-03-23T07:06:29;7.80;99.90
17687;DHT22;8962;52.538;13.266;2024-03-23T07:08:56;7.70;99.90
17687;DHT22;8962;52.538;13.266;2024-03-23T07:11:24;7.80;99.90
17687;DHT22;8962;52.538;13.266;2024-03-23T07:13:51;7.90;99.90
17687;DHT22;8962;52.538;13.266;2024-03-23T07:16:21;7.90;99.90
17687;DHT22;8962;52.538;13.266;2024-03-23T07:18:47;8.00;99.90
17687;DHT22;8962;52.538;13.266;2024-03-23T07:21:14;7.90;99.90
17687;DHT22;8962;52.538;13.266;2024-03-23T07:23:42;7.90;99.90
17687;DHT22;8962;52.538;13.266;2024-03-23T07:26:10;8.00;99.90
17687;DHT22;8962;52.538;13.266;2024-03-23T07:28:37;8.10;99.90
17687;DHT22;8962;52.538;13.266;2024-03-23T07:31:09;8.00;99.90
17687;DHT22;8962;52.538;13.266;2024-03-23T07:33:41;8.10;99.90
17687;DHT22;8962;52.538;13.266;2024-03-23T07:36:09;8.20;99.90
17687;DHT22;8962;52.538;13.266;2024-03-23T07:38:35;8.20;99.90
17687;DHT22;8962;52.538;13.266;2024-03-23T07:41:03;8.20;99.90
17687;DHT22;8962;52.538;13.266;2024-03-23T07:43:29;8.10;99.90
17687;DHT22;8962;52.538;13.266;2024-03-23T07:45:57;8.10;99.90
17687;DHT22;8962;52.538;13.266;2024-03-23T07:48:23;8.00;99.90
17687;DHT22;8962;52.538;13.266;2024-03-23T07:51:00;7.90;99.90
17687;DHT22;8962;52.538;13.266;2024-03-23T07:53:27;7.90;99.90
17687;DHT22;8962;52.538;13.266;2024-03-23T07:55:55;7.90;99.90
17687;DHT22;8962;52.538;13.266;2024-03-23T07:58:21;7.80;99.90
17687;DHT22;8962;52.538;13.266;2024-03-23T08:00:48;7.70;99.90
17687;DHT22;8962;52.538;13.266;2024-03-23T08:03:15;7.60;99.90
17687;DHT22;8962;52.538;13.266;2024-03-23T08:05:41;7.50;99.90
17687;DHT22;8962;52.538;13.266;2024-03-23T08:08:09;7.40;99.90
17687;DHT22;8962;52.538;13.266;2024-03-23T08:10:36;7.30;99.90
17687;DHT22;8962;52.538;13.266;2024-03-23T08:13:03;7.10;99.90
17687;DHT22;8962;52.538;13.266;2024-03-23T08:15:31;7.00;99.90
17687;DHT22;8962;52.538;13.266;2024-03-23T08:20:26;6.80;99.90
17687;DHT22;8962;52.538;13.266;2024-03-23T08:22:53;6.80;99.90
17687;DHT22;8962;52.538;13.266;2024-03-23T08:25:22;6.80;99.90
17687;DHT22;8962;52.538;13.266;2024-03-23T08:27:48;6.70;99.90
17687;DHT22;8962;52.538;13.266;2024-03-23T08:30:15;6.70;99.90
17687;DHT22;8962;52.538;13.266;2024-03-23T08:32:41;6.60;99.90
17687;DHT22;8962;52.538;13.266;2024-03-23T08:35:09;6.60;99.90
17687;DHT22;8962;52.538;13.266;2024-03-23T08:37:35;6.50;99.90
17687;DHT22;8962;52.538;13.266;2024-03-23T08:40:02;6.40;99.90
17687;DHT22;8962;52.538;13.266;2024-03-23T08:42:31;6.50;99.90
17687;DHT22;8962;52.538;13.266;2024-03-23T08:44:58;6.50;99.90
17687;DHT22;8962;52.538;13.266;2024-03-23T08:47:24;6.40;99.90
17687;DHT22;8962;52.538;13.266;2024-03-23T08:49:51;6.50;99.90
17687;DHT22;8962;52.538;13.266;2024-03-23T08:52:18;6.50;99.90
17687;DHT22;8962;52.538;13.266;2024-03-23T08:54:45;6.40;99.90
17687;DHT22;8962;52.538;13.266;2024-03-23T08:57:11;6.40;99.90
17687;DHT22;8962;52.538;13.266;2024-03-23T08:59:40;6.50;99.90
17687;DHT22;8962;52.538;13.266;2024-03-23T09:02:06;6.40;99.90
17687;DHT22;8962;52.538;13.266;2024-03-23T09:04:33;6.40;99.90
17687;DHT22;8962;52.538;13.266;2024-03-23T09:07:00;6.30;99.90
17687;DHT22;8962;52.538;13.266;2024-03-23T09:09:28;6.20;99.90
17687;DHT22;8962;52.538;13.266;2024-03-23T09:11:54;6.20;99.90
17687;DHT22;8962;52.538;13.266;2024-03-23T09:14:22;6.10;99.90
17687;DHT22;8962;52.538;13.266;2024-03-23T09:16:51;6.20;99.90
17687;DHT22;8962;52.538;13.266;2024-03-23T09:19:18;6.20;99.90
17687;DHT22;8962;52.538;13.266;2024-03-23T09:21:44;6.20;99.90
17687;DHT22;8962;52.538;13.266;2024-03-23T09:24:11;6.30;99.90
17687;DHT22;8962;52.538;13.266;2024-03-23T09:26:37;6.30;99.90
17687;DHT22;8962;52.538;13.266;2024-03-23T09:29:04;6.30;99.90
17687;DHT22;8962;52.538;13.266;2024-03-23T09:31:30;6.40;99.90
17687;DHT22;8962;52.538;13.266;2024-03-23T09:34:00;6.40;99.90
17687;DHT22;8962;52.538;13.266;2024-03-23T09:36:26;6.50;99.90
17687;DHT22;8962;52.538;13.266;2024-03-23T09:38:54;6.60;99.90
17687;DHT22;8962;52.538;13.266;2024-03-23T09:41:20;6.50;99.90
17687;DHT22;8962;52.538;13.266;2024-03-23T09:43:47;6.50;99.90
17687;DHT22;8962;52.538;13.266;2024-03-23T09:46:15;6.50;99.90
17687;DHT22;8962;52.538;13.266;2024-03-23T09:48:43;6.60;99.90
17687;DHT22;8962;52.538;13.266;2024-03-23T09:51:13;6.60;99.90
17687;DHT22;8962;52.538;13.266;2024-03-23T09:53:40;6.50;99.90
17687;DHT22;8962;52.538;13.266;2024-03-23T09:56:07;6.40;99.90
17687;DHT22;8962;52.538;13.266;2024-03-23T09:58:35;6.20;99.90
17687;DHT22;8962;52.538;13.266;2024-03-23T10:01:02;6.20;99.90
17687;DHT22;8962;52.538;13.266;2024-03-23T10:03:30;6.10;99.90
17687;DHT22;8962;52.538;13.266;2024-03-23T10:06:03;6.10;99.90
17687;DHT22;8962;52.538;13.266;2024-03-23T10:08:32;6.00;99.90
17687;DHT22;8962;52.538;13.266;2024-03-23T10:11:13;6.00;99.90
17687;DHT22;8962;52.538;13.266;2024-03-23T10:13:42;5.80;99.90
17687;DHT22;8962;52.538;13.266;2024-03-23T10:16:09;5.90;99.90
17687;DHT22;8962;52.538;13.266;2024-03-23T10:18:39;5.90;99.90
17687;DHT22;8962;52.538;13.266;2024-03-23T10:21:09;5.80;99.90
17687;DHT22;8962;52.538;13.266;2024-03-23T10:23:39;5.80;99.90
17687;DHT22;8962;52.538;13.266;2024-03-23T10:26:16;5.90;99.90
17687;DHT22;8962;52.538;13.266;2024-03-23T10:28:55;5.90;99.90
17687;DHT22;8962;52.538;13.266;2024-03-23T10:31:23;6.00;99.90
17687;DHT22;8962;52.538;13.266;2024-03-23T10:33:50;6.10;99.90
17687;DHT22;8962;52.538;13.266;2024-03-23T10:36:19;6.10;99.90
17687;DHT22;8962;52.538;13.266;2024-03-23T10:38:50;6.10;99.90
17687;DHT22;8962;52.538;13.266;2024-03-23T10:41:17;6.00;99.90
17687;DHT22;8962;52.538;13.266;2024-03-23T10:43:46;6.10;99.90
17687;DHT22;8962;52.538;13.266;2024-03-23T10:46:12;6.10;99.90
17687;DHT22;8962;52.538;13.266;2024-03-23T10:48:40;6.20;99.90
17687;DHT22;8962;52.538;13.266;2024-03-23T10:51:07;6.30;99.90
17687;DHT22;8962;52.538;13.266;2024-03-23T10:53:35;6.30;99.90
17687;DHT22;8962;52.538;13.266;2024-03-23T10:56:04;6.40;99.90
17687;DHT22;8962;52.538;13.266;2024-03-23T10:58:35;6.50;99.90
17687;DHT22;8962;52.538;13.266;2024-03-23T11:01:03;6.70;99.90
17687;DHT22;8962;52.538;13.266;2024-03-23T11:03:31;6.80;99.90
17687;DHT22;8962;52.538;13.266;2024-03-23T11:05:58;6.90;99.90
17687;DHT22;8962;52.538;13.266;2024-03-23T11:08:34;7.00;99.90
17687;DHT22;8962;52.538;13.266;2024-03-23T11:11:17;7.00;99.90
17687;DHT22;8962;52.538;13.266;2024-03-23T11:13:47;7.00;99.90
17687;DHT22;8962;52.538;13.266;2024-03-23T11:16:14;7.20;99.90
17687;DHT22;8962;52.538;13.266;2024-03-23T11:18:41;7.20;99.90
17687;DHT22;8962;52.538;13.266;2024-03-23T11:21:08;7.20;99.90
17687;DHT22;8962;52.538;13.266;2024-03-23T11:23:35;7.20;99.90
17687;DHT22;8962;52.538;13.266;2024-03-23T11:26:01;7.20;99.90
17687;DHT22;8962;52.538;13.266;2024-03-23T11:28:30;7.40;99.90
17687;DHT22;8962;52.538;13.266;2024-03-23T11:30:56;7.50;99.90
17687;DHT22;8962;52.538;13.266;2024-03-23T11:33:23;7.70;99.90
17687;DHT22;8962;52.538;13.266;2024-03-23T11:35:49;7.80;99.90
17687;DHT22;8962;52.538;13.266;2024-03-23T11:38:18;7.80;99.90
17687;DHT22;8962;52.538;13.266;2024-03-23T11:40:45;8.00;99.90
17687;DHT22;8962;52.538;13.266;2024-03-23T11:43:14;8.20;99.90
17687;DHT22;8962;52.538;13.266;2024-03-23T11:45:43;8.30;99.90
17687;DHT22;8962;52.538;13.266;2024-03-23T11:48:11;8.50;99.90
17687;DHT22;8962;52.538;13.266;2024-03-23T11:50:39;8.50;99.90
17687;DHT22;8962;52.538;13.266;2024-03-23T11:53:08;8.40;99.90
17687;DHT22;8962;52.538;13.266;2024-03-23T11:55:48;8.50;99.90
17687;DHT22;8962;52.538;13.266;2024-03-23T11:58:16;8.50;99.90
17687;DHT22;8962;52.538;13.266;2024-03-23T12:00:49;8.50;99.90
17687;DHT22;8962;52.538;13.266;2024-03-23T12:03:18;8.30;99.90
17687;DHT22;8962;52.538;13.266;2024-03-23T12:05:48;8.10;99.90
17687;DHT22;8962;52.538;13.266;2024-03-23T12:08:20;8.00;99.90
17687;DHT22;8962;52.538;13.266;2024-03-23T12:10:49;7.70;99.90
17687;DHT22;8962;52.538;13.266;2024-03-23T12:13:17;7.70;99.90
17687;DHT22;8962;52.538;13.266;2024-03-23T12:15:45;7.70;99.90
17687;DHT22;8962;52.538;13.266;2024-03-23T12:18:13;7.50;99.90
17687;DHT22;8962;52.538;13.266;2024-03-23T12:20:39;7.60;99.90
17687;DHT22;8962;52.538;13.266;2024-03-23T12:23:08;7.80;99.90
17687;DHT22;8962;52.538;13.266;2024-03-23T12:25:35;7.90;99.90
17687;DHT22;8962;52.538;13.266;2024-03-23T12:28:03;8.00;99.90
17687;DHT22;8962;52.538;13.266;2024-03-23T12:30:32;7.80;99.90
17687;DHT22;8962;52.538;13.266;2024-03-23T12:33:01;7.80;99.90
17687;DHT22;8962;52.538;13.266;2024-03-23T12:35:28;7.80;99.90
17687;DHT22;8962;52.538;13.266;2024-03-23T12:37:56;7.80;99.90
17687;DHT22;8962;52.538;13.266;2024-03-23T12:40:22;8.10;99.90
17687;DHT22;8962;52.538;13.266;2024-03-23T12:42:49;8.20;99.90
17687;DHT22;8962;52.538;13.266;2024-03-23T12:45:16;8.50;99.90
17687;DHT22;8962;52.538;13.266;2024-03-23T12:47:43;8.50;99.90
17687;DHT22;8962;52.538;13.266;2024-03-23T12:50:11;8.80;99.90
17687;DHT22;8962;52.538;13.266;2024-03-23T12:52:39;8.90;99.90
17687;DHT22;8962;52.538;13.266;2024-03-23T12:55:11;9.30;99.90
17687;DHT22;8962;52.538;13.266;2024-03-23T12:57:38;10.10;99.90
17687;DHT22;8962;52.538;13.266;2024-03-23T13:00:07;10.70;99.90
17687;DHT22;8962;52.538;13.266;2024-03-23T13:02:39;11.20;99.90
17687;DHT22;8962;52.538;13.266;2024-03-23T13:05:06;11.40;99.90
17687;DHT22;8962;52.538;13.266;2024-03-23T13:07:36;11.40;99.90
17687;DHT22;8962;52.538;13.266;2024-03-23T13:10:04;10.90;99.90
17687;DHT22;8962;52.538;13.266;2024-03-23T13:12:31;10.30;99.90
17687;DHT22;8962;52.538;13.266;2024-03-23T13:14:58;10.00;99.90
17687;DHT22;8962;52.538;13.266;2024-03-23T13:17:26;10.80;99.90
17687;DHT22;8962;52.538;13.266;2024-03-23T13:19:52;11.50;99.90
17687;DHT22;8962;52.538;13.266;2024-03-23T13:22:19;12.40;99.90
17687;DHT22;8962;52.538;13.266;2024-03-23T13:24:47;13.10;99.90
17687;DHT22;8962;52.538;13.266;2024-03-23T13:27:15;14.70;99.90
17687;DHT22;8962;52.538;13.266;2024-03-23T13:29:41;15.20;98.80
17687;DHT22;8962;52.538;13.266;2024-03-23T13:32:08;15.50;96.40
17687;DHT22;8962;52.538;13.266;2024-03-23T13:34:34;15.60;95.70
17687;DHT22;8962;52.538;13.266;2024-03-23T13:37:01;16.10;95.50
17687;DHT22;8962;52.538;13.266;2024-03-23T13:39:29;17.20;92.30
17687;DHT22;8962;52.538;13.266;2024-03-23T13:41:59;16.50;91.50
17687;DHT22;8962;52.538;13.266;2024-03-23T13:44:25;15.40;93.50
17687;DHT22;8962;52.538;13.266;2024-03-23T13:46:52;15.00;95.40
17687;DHT22;8962;52.538;13.266;2024-03-23T13:49:25;15.90;94.90
17687;DHT22;8962;52.538;13.266;2024-03-23T13:51:53;17.60;91.00
17687;DHT22;8962;52.538;13.266;2024-03-23T13:54:20;16.10;91.70
17687;DHT22;8962;52.538;13.266;2024-03-23T13:56:48;15.20;94.00
17687;DHT22;8962;52.538;13.266;2024-03-23T13:59:16;14.10;96.00
17687;DHT22;8962;52.538;13.266;2024-03-23T14:01:47;12.80;99.40
17687;DHT22;8962;52.538;13.266;2024-03-23T14:04:13;12.10;99.90
17687;DHT22;8962;52.538;13.266;2024-03-23T14:06:42;12.50;99.90
17687;DHT22;8962;52.538;13.266;2024-03-23T14:09:10;12.50;99.90
17687;DHT22;8962;52.538;13.266;2024-03-23T14:11:38;11.80;99.90
17687;DHT22;8962;52.538;13.266;2024-03-23T14:14:04;11.10;99.90
17687;DHT22;8962;52.538;13.266;2024-03-23T14:16:33;10.60;99.90
17687;DHT22;8962;52.538;13.266;2024-03-23T14:18:59;10.20;99.90
17687;DHT22;8962;52.538;13.266;2024-03-23T14:21:27;9.60;99.90
17687;DHT22;8962;52.538;13.266;2024-03-23T14:23:53;9.20;99.90
17687;DHT22;8962;52.538;13.266;2024-03-23T14:26:20;9.10;99.90
17687;DHT22;8962;52.538;13.266;2024-03-23T14:28:46;9.10;99.90
17687;DHT22;8962;52.538;13.266;2024-03-23T14:31:14;9.00;99.90
17687;DHT22;8962;52.538;13.266;2024-03-23T14:33:41;8.90;99.90
17687;DHT22;8962;52.538;13.266;2024-03-23T14:36:16;8.90;99.90
17687;DHT22;8962;52.538;13.266;2024-03-23T14:38:42;8.90;99.90
17687;DHT22;8962;52.538;13.266;2024-03-23T14:41:09;8.70;99.90
17687;DHT22;8962;52.538;13.266;2024-03-23T14:43:35;8.50;99.90
17687;DHT22;8962;52.538;13.266;2024-03-23T14:46:07;8.30;99.90
17687;DHT22;8962;52.538;13.266;2024-03-23T14:48:33;7.80;99.90
17687;DHT22;8962;52.538;13.266;2024-03-23T14:51:02;7.30;99.90
17687;DHT22;8962;52.538;13.266;2024-03-23T14:53:30;7.00;99.90
17687;DHT22;8962;52.538;13.266;2024-03-23T14:55:57;6.80;99.90
17687;DHT22;8962;52.538;13.266;2024-03-23T14:58:25;6.80;99.90
17687;DHT22;8962;52.538;13.266;2024-03-23T15:00:52;6.80;99.90
17687;DHT22;8962;52.538;13.266;2024-03-23T15:03:19;7.00;99.90
17687;DHT22;8962;52.538;13.266;2024-03-23T15:05:55;7.30;99.90
17687;DHT22;8962;52.538;13.266;2024-03-23T15:08:23;7.40;99.90
17687;DHT22;8962;52.538;13.266;2024-03-23T15:10:50;7.50;99.90
17687;DHT22;8962;52.538;13.266;2024-03-23T15:13:17;7.40;99.90
17687;DHT22;8962;52.538;13.266;2024-03-23T15:15:44;7.30;99.90
17687;DHT22;8962;52.538;13.266;2024-03-23T15:18:11;7.40;99.90
17687;DHT22;8962;52.538;13.266;2024-03-23T15:20:41;7.30;99.90
17687;DHT22;8962;52.538;13.266;2024-03-23T15:23:08;7.30;99.90
17687;DHT22;8962;52.538;13.266;2024-03-23T15:25:36;7.30;99.90
17687;DHT22;8962;52.538;13.266;2024-03-23T15:28:02;7.40;99.90
17687;DHT22;8962;52.538;13.266;2024-03-23T15:30:29;7.30;99.90
17687;DHT22;8962;52.538;13.266;2024-03-23T15:32:56;7.30;99.90
17687;DHT22;8962;52.538;13.266;2024-03-23T15:35:23;7.40;99.90
17687;DHT22;8962;52.538;13.266;2024-03-23T15:37:49;7.40;99.90
17687;DHT22;8962;52.538;13.266;2024-03-23T15:40:18;7.40;99.90
17687;DHT22;8962;52.538;13.266;2024-03-23T15:42:45;7.50;99.90
17687;DHT22;8962;52.538;13.266;2024-03-23T15:45:13;7.50;99.90
17687;DHT22;8962;52.538;13.266;2024-03-23T15:47:39;7.50;99.90
17687;DHT22;8962;52.538;13.266;2024-03-23T15:50:07;7.60;99.90
17687;DHT22;8962;52.538;13.266;2024-03-23T15:52:36;7.60;99.90
17687;DHT22;8962;52.538;13.266;2024-03-23T15:55:04;7.60;99.90
17687;DHT22;8962;52.538;13.266;2024-03-23T15:57:33;7.60;99.90
17687;DHT22;8962;52.538;13.266;2024-03-23T16:00:02;7.60;99.90
17687;DHT22;8962;52.538;13.266;2024-03-23T16:02:37;7.60;99.90
17687;DHT22;8962;52.538;13.266;2024-03-23T16:05:06;7.60;99.90
17687;DHT22;8962;52.538;13.266;2024-03-23T16:07:34;7.60;99.90
17687;DHT22;8962;52.538;13.266;2024-03-23T16:10:05;7.60;99.90
17687;DHT22;8962;52.538;13.266;2024-03-23T16:12:35;7.60;99.90
17687;DHT22;8962;52.538;13.266;2024-03-23T16:15:04;7.60;99.90
17687;DHT22;8962;52.538;13.266;2024-03-23T16:17:31;7.60;99.90
17687;DHT22;8962;52.538;13.266;2024-03-23T16:20:02;7.60;99.90
17687;DHT22;8962;52.538;13.266;2024-03-23T16:22:28;7.60;99.90
17687;DHT22;8962;52.538;13.266;2024-03-23T16:24:55;7.60;99.90
17687;DHT22;8962;52.538;13.266;2024-03-23T16:27:21;7.50;99.90
17687;DHT22;8962;52.538;13.266;2024-03-23T16:29:49;7.50;99.90
17687;DHT22;8962;52.538;13.266;2024-03-23T16:32:16;7.50;99.90
17687;DHT22;8962;52.538;13.266;2024-03-23T16:34:44;7.50;99.90
17687;DHT22;8962;52.538;13.266;2024-03-23T16:37:10;7.50;99.90
17687;DHT22;8962;52.538;13.266;2024-03-23T16:39:37;7.50;99.90
17687;DHT22;8962;52.538;13.266;2024-03-23T16:42:04;7.50;99.90